sensor_id;sensor_type;location;lat;lon;timestamp;P1;durP1;ratioP1;P2;durP2;ratioP2
26908;SDS011;14477;51.038;4.588;2022-12-07T00:01:21;4.40;;;2.90;;
26908;SDS011;14477;51.038;4.588;2022-12-07T00:03:49;4.72;;;2.97;;
26908;SDS011;14477;51.038;4.588;2022-12-07T00:06:17;4.78;;;2.90;;
26908;SDS011;14477;51.038;4.588;2022-12-07T00:08:43;5.28;;;3.05;;
26908;SDS011;14477;51.038;4.588;2022-12-07T00:11:13;5.20;;;3.40;;
26908;SDS011;14477;51.038;4.588;2022-12-07T00:13:41;4.60;;;3.07;;
26908;SDS011;14477;51.038;4.588;2022-12-07T00:16:08;4.88;;;3.10;;
26908;SDS011;14477;51.038;4.588;2022-12-07T00:18:35;5.25;;;3.30;;
26908;SDS011;14477;51.038;4.588;2022-12-07T00:21:02;6.38;;;3.50;;
26908;SDS011;14477;51.038;4.588;2022-12-07T00:23:38;6.27;;;3.57;;
26908;SDS011;14477;51.038;4.588;2022-12-07T00:26:39;5.72;;;3.25;;
26908;SDS011;14477;51.038;4.588;2022-12-07T00:28:59;5.65;;;3.33;;
26908;SDS011;14477;51.038;4.588;2022-12-07T00:31:32;5.72;;;3.50;;
26908;SDS011;14477;51.038;4.588;2022-12-07T00:34:03;5.95;;;3.50;;
26908;SDS011;14477;51.038;4.588;2022-12-07T00:36:30;7.27;;;3.40;;
26908;SDS011;14477;51.038;4.588;2022-12-07T00:38:59;5.10;;;3.45;;
26908;SDS011;14477;51.038;4.588;2022-12-07T00:41:28;5.28;;;3.13;;
26908;SDS011;14477;51.038;4.588;2022-12-07T00:43:55;6.47;;;3.80;;
26908;SDS011;14477;51.038;4.588;2022-12-07T00:46:22;7.07;;;3.80;;
26908;SDS011;14477;51.038;4.588;2022-12-07T00:48:48;5.70;;;3.42;;
26908;SDS011;14477;51.038;4.588;2022-12-07T00:51:15;5.90;;;3.35;;
26908;SDS011;14477;51.038;4.588;2022-12-07T00:53:43;6.68;;;3.67;;
26908;SDS011;14477;51.038;4.588;2022-12-07T00:56:11;6.63;;;3.80;;
26908;SDS011;14477;51.038;4.588;2022-12-07T00:58:42;5.90;;;3.50;;
26908;SDS011;14477;51.038;4.588;2022-12-07T01:01:08;4.97;;;3.22;;
26908;SDS011;14477;51.038;4.588;2022-12-07T01:03:35;5.85;;;3.53;;
26908;SDS011;14477;51.038;4.588;2022-12-07T01:06:02;6.35;;;3.85;;
26908;SDS011;14477;51.038;4.588;2022-12-07T01:08:29;6.20;;;3.70;;
26908;SDS011;14477;51.038;4.588;2022-12-07T01:11:02;5.40;;;3.50;;
26908;SDS011;14477;51.038;4.588;2022-12-07T01:13:30;6.22;;;3.65;;
26908;SDS011;14477;51.038;4.588;2022-12-07T01:15:58;7.35;;;4.20;;
26908;SDS011;14477;51.038;4.588;2022-12-07T01:18:25;8.35;;;3.90;;
26908;SDS011;14477;51.038;4.588;2022-12-07T01:20:59;6.97;;;3.90;;
26908;SDS011;14477;51.038;4.588;2022-12-07T01:23:25;6.83;;;4.20;;
26908;SDS011;14477;51.038;4.588;2022-12-07T01:25:55;7.40;;;4.30;;
26908;SDS011;14477;51.038;4.588;2022-12-07T01:28:22;6.53;;;3.95;;
26908;SDS011;14477;51.038;4.588;2022-12-07T01:31:01;6.23;;;3.63;;
26908;SDS011;14477;51.038;4.588;2022-12-07T01:33:33;5.95;;;3.53;;
26908;SDS011;14477;51.038;4.588;2022-12-07T01:36:04;5.68;;;3.75;;
26908;SDS011;14477;51.038;4.588;2022-12-07T01:38:31;6.32;;;3.72;;
26908;SDS011;14477;51.038;4.588;2022-12-07T01:40:58;5.57;;;3.33;;
26908;SDS011;14477;51.038;4.588;2022-12-07T01:43:26;7.43;;;3.80;;
26908;SDS011;14477;51.038;4.588;2022-12-07T01:45:54;7.43;;;4.28;;
26908;SDS011;14477;51.038;4.588;2022-12-07T01:48:22;7.15;;;4.50;;
26908;SDS011;14477;51.038;4.588;2022-12-07T01:50:54;7.30;;;4.20;;
26908;SDS011;14477;51.038;4.588;2022-12-07T01:53:25;6.30;;;4.05;;
26908;SDS011;14477;51.038;4.588;2022-12-07T01:55:54;6.60;;;3.63;;
26908;SDS011;14477;51.038;4.588;2022-12-07T01:58:22;5.78;;;3.95;;
26908;SDS011;14477;51.038;4.588;2022-12-07T02:00:49;6.18;;;3.90;;
26908;SDS011;14477;51.038;4.588;2022-12-07T02:05:54;6.77;;;3.90;;
26908;SDS011;14477;51.038;4.588;2022-12-07T02:08:21;4.68;;;3.17;;
26908;SDS011;14477;51.038;4.588;2022-12-07T02:10:47;6.35;;;3.58;;
26908;SDS011;14477;51.038;4.588;2022-12-07T02:13:14;5.67;;;3.50;;
26908;SDS011;14477;51.038;4.588;2022-12-07T02:24:24;5.97;;;3.70;;
26908;SDS011;14477;51.038;4.588;2022-12-07T02:30:14;8.10;;;4.10;;
26908;SDS011;14477;51.038;4.588;2022-12-07T02:32:54;6.50;;;3.58;;
26908;SDS011;14477;51.038;4.588;2022-12-07T02:38:18;6.30;;;3.80;;
26908;SDS011;14477;51.038;4.588;2022-12-07T02:40:52;6.28;;;3.92;;
26908;SDS011;14477;51.038;4.588;2022-12-07T02:43:23;6.83;;;3.63;;
26908;SDS011;14477;51.038;4.588;2022-12-07T02:45:50;7.18;;;4.25;;
26908;SDS011;14477;51.038;4.588;2022-12-07T02:48:19;6.13;;;3.70;;
26908;SDS011;14477;51.038;4.588;2022-12-07T02:50:49;6.22;;;3.58;;
26908;SDS011;14477;51.038;4.588;2022-12-07T02:53:36;6.75;;;3.88;;
26908;SDS011;14477;51.038;4.588;2022-12-07T03:15:32;5.90;;;3.60;;
26908;SDS011;14477;51.038;4.588;2022-12-07T03:18:10;7.10;;;3.70;;
26908;SDS011;14477;51.038;4.588;2022-12-07T03:20:39;6.60;;;3.83;;
26908;SDS011;14477;51.038;4.588;2022-12-07T03:23:06;6.63;;;3.63;;
26908;SDS011;14477;51.038;4.588;2022-12-07T03:25:35;6.25;;;3.60;;
26908;SDS011;14477;51.038;4.588;2022-12-07T03:28:08;6.82;;;3.97;;
26908;SDS011;14477;51.038;4.588;2022-12-07T03:30:49;5.90;;;3.50;;
26908;SDS011;14477;51.038;4.588;2022-12-07T03:33:38;5.45;;;3.58;;
26908;SDS011;14477;51.038;4.588;2022-12-07T03:39:34;5.85;;;3.35;;
26908;SDS011;14477;51.038;4.588;2022-12-07T03:41:44;5.85;;;3.40;;
26908;SDS011;14477;51.038;4.588;2022-12-07T03:44:11;6.27;;;3.40;;
26908;SDS011;14477;51.038;4.588;2022-12-07T03:46:43;5.68;;;3.10;;
26908;SDS011;14477;51.038;4.588;2022-12-07T03:52:00;5.10;;;3.30;;
26908;SDS011;14477;51.038;4.588;2022-12-07T03:57:16;4.47;;;2.87;;
26908;SDS011;14477;51.038;4.588;2022-12-07T03:59:44;4.68;;;2.83;;
26908;SDS011;14477;51.038;4.588;2022-12-07T04:02:11;4.88;;;2.70;;
26908;SDS011;14477;51.038;4.588;2022-12-07T04:04:38;5.00;;;2.80;;
26908;SDS011;14477;51.038;4.588;2022-12-07T04:07:04;4.65;;;2.78;;
26908;SDS011;14477;51.038;4.588;2022-12-07T04:09:30;5.40;;;2.93;;
26908;SDS011;14477;51.038;4.588;2022-12-07T04:11:55;4.13;;;2.50;;
26908;SDS011;14477;51.038;4.588;2022-12-07T04:14:21;4.83;;;2.70;;
26908;SDS011;14477;51.038;4.588;2022-12-07T04:16:51;4.90;;;2.63;;
26908;SDS011;14477;51.038;4.588;2022-12-07T04:19:19;4.00;;;2.58;;
26908;SDS011;14477;51.038;4.588;2022-12-07T04:21:46;4.40;;;2.80;;
26908;SDS011;14477;51.038;4.588;2022-12-07T04:24:13;5.47;;;3.00;;
26908;SDS011;14477;51.038;4.588;2022-12-07T04:26:40;4.63;;;2.92;;
26908;SDS011;14477;51.038;4.588;2022-12-07T04:29:06;5.15;;;2.85;;
26908;SDS011;14477;51.038;4.588;2022-12-07T04:31:33;4.38;;;2.72;;
26908;SDS011;14477;51.038;4.588;2022-12-07T04:33:58;6.30;;;2.90;;
26908;SDS011;14477;51.038;4.588;2022-12-07T04:36:24;5.10;;;3.10;;
26908;SDS011;14477;51.038;4.588;2022-12-07T04:38:52;4.90;;;2.80;;
26908;SDS011;14477;51.038;4.588;2022-12-07T04:41:19;4.47;;;2.65;;
26908;SDS011;14477;51.038;4.588;2022-12-07T04:44:10;4.60;;;2.63;;
26908;SDS011;14477;51.038;4.588;2022-12-07T04:46:39;4.93;;;2.80;;
26908;SDS011;14477;51.038;4.588;2022-12-07T04:49:05;4.20;;;2.80;;
26908;SDS011;14477;51.038;4.588;2022-12-07T04:51:31;5.47;;;2.60;;
26908;SDS011;14477;51.038;4.588;2022-12-07T04:53:57;4.18;;;2.50;;
26908;SDS011;14477;51.038;4.588;2022-12-07T04:56:23;6.05;;;2.60;;
26908;SDS011;14477;51.038;4.588;2022-12-07T04:58:50;4.35;;;2.78;;
26908;SDS011;14477;51.038;4.588;2022-12-07T05:01:17;4.17;;;2.80;;
26908;SDS011;14477;51.038;4.588;2022-12-07T05:03:43;4.97;;;2.50;;
26908;SDS011;14477;51.038;4.588;2022-12-07T05:06:09;4.53;;;2.70;;
26908;SDS011;14477;51.038;4.588;2022-12-07T05:08:35;4.28;;;2.67;;
26908;SDS011;14477;51.038;4.588;2022-12-07T05:11:02;3.50;;;2.17;;
26908;SDS011;14477;51.038;4.588;2022-12-07T05:13:28;6.03;;;2.95;;
26908;SDS011;14477;51.038;4.588;2022-12-07T05:15:54;3.90;;;2.35;;
26908;SDS011;14477;51.038;4.588;2022-12-07T05:18:20;4.93;;;3.00;;
26908;SDS011;14477;51.038;4.588;2022-12-07T05:20:46;4.35;;;2.70;;
26908;SDS011;14477;51.038;4.588;2022-12-07T05:23:12;5.45;;;2.78;;
26908;SDS011;14477;51.038;4.588;2022-12-07T05:25:37;4.18;;;2.63;;
26908;SDS011;14477;51.038;4.588;2022-12-07T05:28:03;4.67;;;2.90;;
26908;SDS011;14477;51.038;4.588;2022-12-07T05:30:30;4.53;;;2.50;;
26908;SDS011;14477;51.038;4.588;2022-12-07T05:32:56;4.07;;;2.60;;
26908;SDS011;14477;51.038;4.588;2022-12-07T05:35:22;5.27;;;2.67;;
26908;SDS011;14477;51.038;4.588;2022-12-07T05:37:48;4.05;;;2.72;;
26908;SDS011;14477;51.038;4.588;2022-12-07T05:40:14;5.45;;;2.95;;
26908;SDS011;14477;51.038;4.588;2022-12-07T05:42:40;6.00;;;2.92;;
26908;SDS011;14477;51.038;4.588;2022-12-07T05:45:07;5.33;;;3.17;;
26908;SDS011;14477;51.038;4.588;2022-12-07T05:47:33;5.40;;;2.92;;
26908;SDS011;14477;51.038;4.588;2022-12-07T05:49:59;4.77;;;2.60;;
26908;SDS011;14477;51.038;4.588;2022-12-07T05:52:25;4.55;;;2.70;;
26908;SDS011;14477;51.038;4.588;2022-12-07T05:54:51;3.72;;;2.70;;
26908;SDS011;14477;51.038;4.588;2022-12-07T05:57:17;4.30;;;2.80;;
26908;SDS011;14477;51.038;4.588;2022-12-07T05:59:44;4.80;;;2.70;;
26908;SDS011;14477;51.038;4.588;2022-12-07T06:02:11;4.10;;;2.72;;
26908;SDS011;14477;51.038;4.588;2022-12-07T06:04:39;3.85;;;2.72;;
26908;SDS011;14477;51.038;4.588;2022-12-07T06:07:07;3.63;;;2.73;;
26908;SDS011;14477;51.038;4.588;2022-12-07T06:09:34;4.68;;;3.00;;
26908;SDS011;14477;51.038;4.588;2022-12-07T06:12:00;4.90;;;2.88;;
26908;SDS011;14477;51.038;4.588;2022-12-07T06:14:45;7.05;;;3.40;;
26908;SDS011;14477;51.038;4.588;2022-12-07T06:17:11;4.97;;;2.80;;
26908;SDS011;14477;51.038;4.588;2022-12-07T06:19:38;5.30;;;3.20;;
26908;SDS011;14477;51.038;4.588;2022-12-07T06:22:04;5.07;;;3.00;;
26908;SDS011;14477;51.038;4.588;2022-12-07T06:24:30;5.03;;;3.25;;
26908;SDS011;14477;51.038;4.588;2022-12-07T06:26:57;4.43;;;2.50;;
26908;SDS011;14477;51.038;4.588;2022-12-07T06:29:23;5.38;;;3.20;;
26908;SDS011;14477;51.038;4.588;2022-12-07T06:31:48;4.85;;;2.60;;
26908;SDS011;14477;51.038;4.588;2022-12-07T06:34:18;6.27;;;2.83;;
26908;SDS011;14477;51.038;4.588;2022-12-07T06:36:47;4.95;;;2.85;;
26908;SDS011;14477;51.038;4.588;2022-12-07T06:39:17;4.57;;;2.80;;
26908;SDS011;14477;51.038;4.588;2022-12-07T06:41:43;4.72;;;2.80;;
26908;SDS011;14477;51.038;4.588;2022-12-07T06:44:09;5.47;;;2.70;;
26908;SDS011;14477;51.038;4.588;2022-12-07T06:46:35;5.60;;;2.80;;
26908;SDS011;14477;51.038;4.588;2022-12-07T06:49:01;5.93;;;3.28;;
26908;SDS011;14477;51.038;4.588;2022-12-07T06:51:28;3.92;;;2.72;;
26908;SDS011;14477;51.038;4.588;2022-12-07T06:53:54;3.83;;;2.33;;
26908;SDS011;14477;51.038;4.588;2022-12-07T06:56:20;3.80;;;2.22;;
26908;SDS011;14477;51.038;4.588;2022-12-07T06:58:47;3.78;;;2.50;;
26908;SDS011;14477;51.038;4.588;2022-12-07T07:01:14;4.35;;;2.40;;
26908;SDS011;14477;51.038;4.588;2022-12-07T07:03:41;5.43;;;2.70;;
26908;SDS011;14477;51.038;4.588;2022-12-07T07:06:08;3.63;;;2.30;;
26908;SDS011;14477;51.038;4.588;2022-12-07T07:08:35;5.20;;;2.47;;
26908;SDS011;14477;51.038;4.588;2022-12-07T07:11:01;5.88;;;2.78;;
26908;SDS011;14477;51.038;4.588;2022-12-07T07:13:27;3.70;;;2.40;;
26908;SDS011;14477;51.038;4.588;2022-12-07T07:15:53;4.57;;;2.15;;
26908;SDS011;14477;51.038;4.588;2022-12-07T07:18:19;4.10;;;2.38;;
26908;SDS011;14477;51.038;4.588;2022-12-07T07:20:45;3.90;;;2.30;;
26908;SDS011;14477;51.038;4.588;2022-12-07T07:23:10;5.03;;;2.33;;
26908;SDS011;14477;51.038;4.588;2022-12-07T07:25:36;4.10;;;2.40;;
26908;SDS011;14477;51.038;4.588;2022-12-07T07:28:02;3.65;;;2.30;;
26908;SDS011;14477;51.038;4.588;2022-12-07T07:30:28;3.42;;;2.10;;
26908;SDS011;14477;51.038;4.588;2022-12-07T07:32:57;3.37;;;1.90;;
26908;SDS011;14477;51.038;4.588;2022-12-07T07:35:24;4.47;;;2.30;;
26908;SDS011;14477;51.038;4.588;2022-12-07T07:37:51;15.43;;;6.13;;
26908;SDS011;14477;51.038;4.588;2022-12-07T07:40:16;12.80;;;4.83;;
26908;SDS011;14477;51.038;4.588;2022-12-07T07:42:42;10.52;;;4.13;;
26908;SDS011;14477;51.038;4.588;2022-12-07T07:45:08;9.13;;;3.67;;
26908;SDS011;14477;51.038;4.588;2022-12-07T07:47:34;6.15;;;2.83;;
26908;SDS011;14477;51.038;4.588;2022-12-07T07:50:00;8.18;;;3.63;;
26908;SDS011;14477;51.038;4.588;2022-12-07T07:52:26;10.43;;;4.50;;
26908;SDS011;14477;51.038;4.588;2022-12-07T07:54:52;8.52;;;4.00;;
26908;SDS011;14477;51.038;4.588;2022-12-07T07:57:18;9.18;;;4.30;;
26908;SDS011;14477;51.038;4.588;2022-12-07T07:59:43;6.37;;;3.13;;
26908;SDS011;14477;51.038;4.588;2022-12-07T08:02:13;6.47;;;3.22;;
26908;SDS011;14477;51.038;4.588;2022-12-07T08:04:40;4.60;;;2.70;;
26908;SDS011;14477;51.038;4.588;2022-12-07T08:07:06;4.88;;;2.92;;
26908;SDS011;14477;51.038;4.588;2022-12-07T08:09:32;5.72;;;2.65;;
26908;SDS011;14477;51.038;4.588;2022-12-07T08:11:57;4.47;;;2.60;;
26908;SDS011;14477;51.038;4.588;2022-12-07T08:14:23;5.03;;;2.87;;
26908;SDS011;14477;51.038;4.588;2022-12-07T08:16:49;5.50;;;2.58;;
26908;SDS011;14477;51.038;4.588;2022-12-07T08:19:15;6.75;;;3.15;;
26908;SDS011;14477;51.038;4.588;2022-12-07T08:21:41;5.27;;;2.80;;
26908;SDS011;14477;51.038;4.588;2022-12-07T08:24:07;5.32;;;2.88;;
26908;SDS011;14477;51.038;4.588;2022-12-07T08:26:33;4.68;;;2.85;;
26908;SDS011;14477;51.038;4.588;2022-12-07T08:28:59;5.03;;;2.83;;
26908;SDS011;14477;51.038;4.588;2022-12-07T08:31:24;5.30;;;3.13;;
26908;SDS011;14477;51.038;4.588;2022-12-07T08:33:52;4.70;;;3.00;;
26908;SDS011;14477;51.038;4.588;2022-12-07T08:36:18;4.33;;;2.80;;
26908;SDS011;14477;51.038;4.588;2022-12-07T08:38:44;4.32;;;2.75;;
26908;SDS011;14477;51.038;4.588;2022-12-07T08:41:10;5.67;;;3.13;;
26908;SDS011;14477;51.038;4.588;2022-12-07T08:43:35;5.15;;;2.90;;
26908;SDS011;14477;51.038;4.588;2022-12-07T08:46:04;6.32;;;3.40;;
26908;SDS011;14477;51.038;4.588;2022-12-07T08:48:34;5.15;;;2.60;;
26908;SDS011;14477;51.038;4.588;2022-12-07T08:51:03;5.87;;;3.30;;
26908;SDS011;14477;51.038;4.588;2022-12-07T08:53:29;4.35;;;3.00;;
26908;SDS011;14477;51.038;4.588;2022-12-07T08:55:56;5.05;;;3.00;;
26908;SDS011;14477;51.038;4.588;2022-12-07T08:58:23;6.50;;;3.30;;
26908;SDS011;14477;51.038;4.588;2022-12-07T09:00:49;5.45;;;3.10;;
26908;SDS011;14477;51.038;4.588;2022-12-07T09:03:15;4.67;;;2.73;;
26908;SDS011;14477;51.038;4.588;2022-12-07T09:05:41;6.50;;;2.80;;
26908;SDS011;14477;51.038;4.588;2022-12-07T09:08:07;6.18;;;3.08;;
26908;SDS011;14477;51.038;4.588;2022-12-07T09:10:33;5.05;;;2.97;;
26908;SDS011;14477;51.038;4.588;2022-12-07T09:12:59;5.83;;;2.83;;
26908;SDS011;14477;51.038;4.588;2022-12-07T09:15:28;6.00;;;2.65;;
26908;SDS011;14477;51.038;4.588;2022-12-07T09:17:54;3.80;;;2.50;;
26908;SDS011;14477;51.038;4.588;2022-12-07T09:20:20;4.80;;;3.03;;
26908;SDS011;14477;51.038;4.588;2022-12-07T09:22:47;4.30;;;2.90;;
26908;SDS011;14477;51.038;4.588;2022-12-07T09:25:12;5.55;;;3.00;;
26908;SDS011;14477;51.038;4.588;2022-12-07T09:27:38;4.37;;;2.70;;
26908;SDS011;14477;51.038;4.588;2022-12-07T09:30:05;3.67;;;2.55;;
26908;SDS011;14477;51.038;4.588;2022-12-07T09:32:31;5.05;;;2.67;;
26908;SDS011;14477;51.038;4.588;2022-12-07T09:34:57;4.20;;;2.90;;
26908;SDS011;14477;51.038;4.588;2022-12-07T09:37:23;4.17;;;2.70;;
26908;SDS011;14477;51.038;4.588;2022-12-07T09:39:49;4.75;;;2.88;;
26908;SDS011;14477;51.038;4.588;2022-12-07T09:42:19;4.53;;;2.50;;
26908;SDS011;14477;51.038;4.588;2022-12-07T09:45:00;3.10;;;2.10;;
26908;SDS011;14477;51.038;4.588;2022-12-07T09:47:27;5.68;;;2.80;;
26908;SDS011;14477;51.038;4.588;2022-12-07T09:50:00;3.83;;;2.30;;
26908;SDS011;14477;51.038;4.588;2022-12-07T09:52:30;4.57;;;2.60;;
26908;SDS011;14477;51.038;4.588;2022-12-07T09:54:57;3.95;;;2.42;;
26908;SDS011;14477;51.038;4.588;2022-12-07T09:57:30;3.80;;;2.17;;
26908;SDS011;14477;51.038;4.588;2022-12-07T10:00:00;3.53;;;2.07;;
26908;SDS011;14477;51.038;4.588;2022-12-07T10:02:39;3.90;;;2.53;;
26908;SDS011;14477;51.038;4.588;2022-12-07T10:05:09;4.38;;;2.47;;
26908;SDS011;14477;51.038;4.588;2022-12-07T10:07:44;4.63;;;2.30;;
26908;SDS011;14477;51.038;4.588;2022-12-07T10:10:14;3.30;;;2.17;;
26908;SDS011;14477;51.038;4.588;2022-12-07T10:12:54;3.00;;;2.05;;
26908;SDS011;14477;51.038;4.588;2022-12-07T10:15:22;5.05;;;2.15;;
26908;SDS011;14477;51.038;4.588;2022-12-07T10:17:49;4.57;;;2.08;;
26908;SDS011;14477;51.038;4.588;2022-12-07T10:20:18;2.93;;;1.80;;
26908;SDS011;14477;51.038;4.588;2022-12-07T10:23:05;3.92;;;2.00;;
26908;SDS011;14477;51.038;4.588;2022-12-07T10:25:39;4.00;;;2.10;;
26908;SDS011;14477;51.038;4.588;2022-12-07T10:28:10;3.30;;;2.20;;
26908;SDS011;14477;51.038;4.588;2022-12-07T10:36:00;4.05;;;1.92;;
26908;SDS011;14477;51.038;4.588;2022-12-07T10:38:44;3.33;;;1.95;;
26908;SDS011;14477;51.038;4.588;2022-12-07T10:41:11;4.53;;;2.13;;
26908;SDS011;14477;51.038;4.588;2022-12-07T10:43:37;3.90;;;1.77;;
26908;SDS011;14477;51.038;4.588;2022-12-07T10:52:09;4.13;;;2.05;;
26908;SDS011;14477;51.038;4.588;2022-12-07T10:57:45;2.92;;;1.73;;
26908;SDS011;14477;51.038;4.588;2022-12-07T11:02:57;3.13;;;1.50;;
26908;SDS011;14477;51.038;4.588;2022-12-07T11:11:16;3.17;;;1.40;;
26908;SDS011;14477;51.038;4.588;2022-12-07T11:16:56;4.00;;;1.73;;
26908;SDS011;14477;51.038;4.588;2022-12-07T11:19:39;3.38;;;1.70;;
26908;SDS011;14477;51.038;4.588;2022-12-07T11:27:45;4.15;;;1.83;;
26908;SDS011;14477;51.038;4.588;2022-12-07T11:30:18;3.17;;;1.80;;
26908;SDS011;14477;51.038;4.588;2022-12-07T11:33:10;3.72;;;2.25;;
26908;SDS011;14477;51.038;4.588;2022-12-07T11:38:30;3.40;;;1.90;;
26908;SDS011;14477;51.038;4.588;2022-12-07T11:41:09;3.78;;;2.05;;
26908;SDS011;14477;51.038;4.588;2022-12-07T11:43:47;4.03;;;2.17;;
26908;SDS011;14477;51.038;4.588;2022-12-07T11:46:23;5.40;;;2.25;;
26908;SDS011;14477;51.038;4.588;2022-12-07T11:51:33;3.35;;;2.30;;
26908;SDS011;14477;51.038;4.588;2022-12-07T11:54:03;3.70;;;2.13;;
26908;SDS011;14477;51.038;4.588;2022-12-07T11:56:38;3.85;;;2.40;;
26908;SDS011;14477;51.038;4.588;2022-12-07T11:59:12;3.67;;;2.27;;
26908;SDS011;14477;51.038;4.588;2022-12-07T12:07:23;4.53;;;2.33;;
26908;SDS011;14477;51.038;4.588;2022-12-07T12:09:53;3.77;;;2.00;;
26908;SDS011;14477;51.038;4.588;2022-12-07T12:12:46;3.17;;;2.15;;
26908;SDS011;14477;51.038;4.588;2022-12-07T12:18:26;3.33;;;1.83;;
26908;SDS011;14477;51.038;4.588;2022-12-07T12:20:57;4.43;;;1.95;;
26908;SDS011;14477;51.038;4.588;2022-12-07T12:26:18;3.00;;;2.05;;
26908;SDS011;14477;51.038;4.588;2022-12-07T12:33:53;3.75;;;2.30;;
26908;SDS011;14477;51.038;4.588;2022-12-07T12:36:25;4.60;;;2.30;;
26908;SDS011;14477;51.038;4.588;2022-12-07T12:46:54;3.22;;;1.90;;
26908;SDS011;14477;51.038;4.588;2022-12-07T12:54:57;3.42;;;1.77;;
26908;SDS011;14477;51.038;4.588;2022-12-07T12:57:27;3.03;;;1.70;;
26908;SDS011;14477;51.038;4.588;2022-12-07T12:59:59;3.22;;;1.75;;
26908;SDS011;14477;51.038;4.588;2022-12-07T13:02:29;3.40;;;1.73;;
26908;SDS011;14477;51.038;4.588;2022-12-07T13:20:49;4.38;;;1.65;;
26908;SDS011;14477;51.038;4.588;2022-12-07T13:23:18;2.37;;;1.20;;
26908;SDS011;14477;51.038;4.588;2022-12-07T13:25:58;2.63;;;1.30;;
26908;SDS011;14477;51.038;4.588;2022-12-07T13:28:36;1.90;;;1.10;;
26908;SDS011;14477;51.038;4.588;2022-12-07T13:33:45;2.53;;;1.20;;
26908;SDS011;14477;51.038;4.588;2022-12-07T13:36:15;2.30;;;1.60;;
26908;SDS011;14477;51.038;4.588;2022-12-07T13:38:53;2.42;;;1.33;;
26908;SDS011;14477;51.038;4.588;2022-12-07T13:41:35;3.00;;;1.70;;
26908;SDS011;14477;51.038;4.588;2022-12-07T13:44:16;3.20;;;1.73;;
26908;SDS011;14477;51.038;4.588;2022-12-07T13:49:52;3.20;;;1.65;;
26908;SDS011;14477;51.038;4.588;2022-12-07T13:52:29;3.22;;;1.45;;
26908;SDS011;14477;51.038;4.588;2022-12-07T13:57:27;2.60;;;1.40;;
26908;SDS011;14477;51.038;4.588;2022-12-07T13:59:59;3.75;;;1.33;;
26908;SDS011;14477;51.038;4.588;2022-12-07T14:02:27;3.25;;;1.50;;
26908;SDS011;14477;51.038;4.588;2022-12-07T14:05:05;2.60;;;1.45;;
26908;SDS011;14477;51.038;4.588;2022-12-07T14:07:48;2.92;;;1.30;;
26908;SDS011;14477;51.038;4.588;2022-12-07T14:10:27;1.97;;;1.20;;
26908;SDS011;14477;51.038;4.588;2022-12-07T14:18:57;2.05;;;1.00;;
26908;SDS011;14477;51.038;4.588;2022-12-07T14:21:41;2.03;;;1.10;;
26908;SDS011;14477;51.038;4.588;2022-12-07T14:24:46;1.50;;;1.00;;
26908;SDS011;14477;51.038;4.588;2022-12-07T14:27:22;1.55;;;1.00;;
26908;SDS011;14477;51.038;4.588;2022-12-07T14:29:55;2.97;;;1.55;;
26908;SDS011;14477;51.038;4.588;2022-12-07T14:32:26;1.25;;;0.90;;
26908;SDS011;14477;51.038;4.588;2022-12-07T14:35:01;1.90;;;0.90;;
26908;SDS011;14477;51.038;4.588;2022-12-07T14:37:42;1.67;;;0.97;;
26908;SDS011;14477;51.038;4.588;2022-12-07T14:40:18;1.70;;;0.90;;
26908;SDS011;14477;51.038;4.588;2022-12-07T14:42:47;2.03;;;0.98;;
26908;SDS011;14477;51.038;4.588;2022-12-07T14:45:34;2.10;;;0.95;;
26908;SDS011;14477;51.038;4.588;2022-12-07T14:48:02;1.77;;;1.00;;
26908;SDS011;14477;51.038;4.588;2022-12-07T14:50:48;1.80;;;0.90;;
26908;SDS011;14477;51.038;4.588;2022-12-07T14:53:25;1.77;;;1.08;;
26908;SDS011;14477;51.038;4.588;2022-12-07T14:55:58;1.50;;;1.10;;
26908;SDS011;14477;51.038;4.588;2022-12-07T14:58:24;2.42;;;1.10;;
26908;SDS011;14477;51.038;4.588;2022-12-07T15:00:52;1.63;;;1.00;;
26908;SDS011;14477;51.038;4.588;2022-12-07T15:03:18;1.87;;;1.07;;
26908;SDS011;14477;51.038;4.588;2022-12-07T15:05:44;1.75;;;1.00;;
26908;SDS011;14477;51.038;4.588;2022-12-07T15:08:23;2.03;;;1.25;;
26908;SDS011;14477;51.038;4.588;2022-12-07T15:10:49;3.70;;;1.00;;
26908;SDS011;14477;51.038;4.588;2022-12-07T15:13:18;1.87;;;1.00;;
26908;SDS011;14477;51.038;4.588;2022-12-07T15:16:03;1.73;;;1.00;;
26908;SDS011;14477;51.038;4.588;2022-12-07T15:18:30;2.97;;;1.10;;
26908;SDS011;14477;51.038;4.588;2022-12-07T15:20:56;1.63;;;1.20;;
26908;SDS011;14477;51.038;4.588;2022-12-07T15:23:23;2.60;;;1.20;;
26908;SDS011;14477;51.038;4.588;2022-12-07T15:25:49;2.90;;;1.27;;
26908;SDS011;14477;51.038;4.588;2022-12-07T15:28:21;1.85;;;1.20;;
26908;SDS011;14477;51.038;4.588;2022-12-07T15:30:48;1.67;;;1.20;;
26908;SDS011;14477;51.038;4.588;2022-12-07T15:33:14;1.80;;;1.10;;
26908;SDS011;14477;51.038;4.588;2022-12-07T15:35:41;1.77;;;1.10;;
26908;SDS011;14477;51.038;4.588;2022-12-07T15:38:09;1.87;;;1.20;;
26908;SDS011;14477;51.038;4.588;2022-12-07T15:43:14;1.38;;;1.08;;
26908;SDS011;14477;51.038;4.588;2022-12-07T15:45:58;1.83;;;1.17;;
26908;SDS011;14477;51.038;4.588;2022-12-07T15:48:25;2.95;;;1.20;;
26908;SDS011;14477;51.038;4.588;2022-12-07T15:51:00;2.17;;;1.10;;
26908;SDS011;14477;51.038;4.588;2022-12-07T15:53:36;2.08;;;1.25;;
26908;SDS011;14477;51.038;4.588;2022-12-07T15:56:20;2.10;;;1.10;;
26908;SDS011;14477;51.038;4.588;2022-12-07T15:58:46;2.47;;;1.23;;
26908;SDS011;14477;51.038;4.588;2022-12-07T16:01:24;2.15;;;1.30;;
26908;SDS011;14477;51.038;4.588;2022-12-07T16:03:53;1.70;;;1.10;;
26908;SDS011;14477;51.038;4.588;2022-12-07T16:06:24;2.50;;;1.30;;
26908;SDS011;14477;51.038;4.588;2022-12-07T16:08:50;2.22;;;1.20;;
26908;SDS011;14477;51.038;4.588;2022-12-07T16:11:20;2.92;;;1.38;;
26908;SDS011;14477;51.038;4.588;2022-12-07T16:13:48;2.30;;;1.23;;
26908;SDS011;14477;51.038;4.588;2022-12-07T16:16:17;2.07;;;1.10;;
26908;SDS011;14477;51.038;4.588;2022-12-07T16:18:44;1.63;;;1.02;;
26908;SDS011;14477;51.038;4.588;2022-12-07T16:21:14;2.08;;;1.27;;
26908;SDS011;14477;51.038;4.588;2022-12-07T16:23:46;2.20;;;1.02;;
26908;SDS011;14477;51.038;4.588;2022-12-07T16:26:16;2.00;;;1.20;;
26908;SDS011;14477;51.038;4.588;2022-12-07T16:28:44;1.93;;;1.23;;
26908;SDS011;14477;51.038;4.588;2022-12-07T16:31:14;4.68;;;1.30;;
26908;SDS011;14477;51.038;4.588;2022-12-07T16:33:51;2.00;;;1.30;;
26908;SDS011;14477;51.038;4.588;2022-12-07T16:36:19;2.05;;;1.23;;
26908;SDS011;14477;51.038;4.588;2022-12-07T16:38:47;2.45;;;1.17;;
26908;SDS011;14477;51.038;4.588;2022-12-07T16:41:16;1.63;;;1.10;;
26908;SDS011;14477;51.038;4.588;2022-12-07T16:43:43;1.67;;;1.13;;
26908;SDS011;14477;51.038;4.588;2022-12-07T16:46:10;3.33;;;1.20;;
26908;SDS011;14477;51.038;4.588;2022-12-07T16:48:36;1.50;;;0.90;;
26908;SDS011;14477;51.038;4.588;2022-12-07T16:51:07;1.50;;;1.08;;
26908;SDS011;14477;51.038;4.588;2022-12-07T16:53:34;2.22;;;1.10;;
26908;SDS011;14477;51.038;4.588;2022-12-07T16:56:00;1.95;;;0.90;;
26908;SDS011;14477;51.038;4.588;2022-12-07T16:58:26;2.03;;;1.00;;
26908;SDS011;14477;51.038;4.588;2022-12-07T17:00:56;1.52;;;0.90;;
26908;SDS011;14477;51.038;4.588;2022-12-07T17:03:22;2.05;;;0.90;;
26908;SDS011;14477;51.038;4.588;2022-12-07T17:05:48;1.80;;;0.97;;
26908;SDS011;14477;51.038;4.588;2022-12-07T17:08:14;3.10;;;1.10;;
26908;SDS011;14477;51.038;4.588;2022-12-07T17:10:41;3.17;;;1.40;;
26908;SDS011;14477;51.038;4.588;2022-12-07T17:13:09;2.47;;;1.10;;
26908;SDS011;14477;51.038;4.588;2022-12-07T17:15:55;2.53;;;1.20;;
26908;SDS011;14477;51.038;4.588;2022-12-07T17:18:22;2.90;;;1.10;;
26908;SDS011;14477;51.038;4.588;2022-12-07T17:20:47;1.88;;;1.17;;
26908;SDS011;14477;51.038;4.588;2022-12-07T17:23:13;2.07;;;1.30;;
26908;SDS011;14477;51.038;4.588;2022-12-07T17:25:39;1.80;;;1.30;;
26908;SDS011;14477;51.038;4.588;2022-12-07T17:28:04;2.10;;;1.20;;